sensor_id;sensor_type;location;lat;lon;timestamp;temperature;humidity
18101;DHT22;9177;49.156;8.142;2022-07-24T00:01:05;26.50;99.30
18101;DHT22;9177;49.156;8.142;2022-07-24T00:03:32;26.50;99.30
18101;DHT22;9177;49.156;8.142;2022-07-24T00:05:59;26.50;99.30
18101;DHT22;9177;49.156;8.142;2022-07-24T00:08:26;26.50;99.30
18101;DHT22;9177;49.156;8.142;2022-07-24T00:10:54;26.50;99.30
18101;DHT22;9177;49.156;8.142;2022-07-24T00:13:21;26.40;99.20
18101;DHT22;9177;49.156;8.142;2022-07-24T00:15:48;26.40;99.20
18101;DHT22;9177;49.156;8.142;2022-07-24T00:18:15;26.40;99.20
18101;DHT22;9177;49.156;8.142;2022-07-24T00:20:42;26.40;99.20
18101;DHT22;9177;49.156;8.142;2022-07-24T00:23:08;26.40;99.20
18101;DHT22;9177;49.156;8.142;2022-07-24T00:25:35;26.40;99.20
18101;DHT22;9177;49.156;8.142;2022-07-24T00:28:04;26.40;99.20
18101;DHT22;9177;49.156;8.142;2022-07-24T00:30:31;26.40;99.20
18101;DHT22;9177;49.156;8.142;2022-07-24T00:32:58;26.40;99.20
18101;DHT22;9177;49.156;8.142;2022-07-24T00:35:25;26.40;99.20
18101;DHT22;9177;49.156;8.142;2022-07-24T00:37:52;26.40;99.20
18101;DHT22;9177;49.156;8.142;2022-07-24T00:40:19;26.40;99.20
18101;DHT22;9177;49.156;8.142;2022-07-24T00:42:46;26.40;99.20
18101;DHT22;9177;49.156;8.142;2022-07-24T00:45:14;26.40;99.20
18101;DHT22;9177;49.156;8.142;2022-07-24T00:47:41;26.40;99.20
18101;DHT22;9177;49.156;8.142;2022-07-24T00:50:09;26.40;99.20
18101;DHT22;9177;49.156;8.142;2022-07-24T00:52:36;26.40;99.20
18101;DHT22;9177;49.156;8.142;2022-07-24T00:55:08;26.40;99.20
18101;DHT22;9177;49.156;8.142;2022-07-24T00:57:35;26.40;99.20
18101;DHT22;9177;49.156;8.142;2022-07-24T01:00:03;26.40;99.20
18101;DHT22;9177;49.156;8.142;2022-07-24T01:02:33;26.40;99.20
18101;DHT22;9177;49.156;8.142;2022-07-24T01:05:00;26.40;99.20
18101;DHT22;9177;49.156;8.142;2022-07-24T01:07:27;26.40;99.20
18101;DHT22;9177;49.156;8.142;2022-07-24T01:09:54;26.40;99.20
18101;DHT22;9177;49.156;8.142;2022-07-24T01:12:21;26.30;99.10
18101;DHT22;9177;49.156;8.142;2022-07-24T01:14:48;26.40;99.20
18101;DHT22;9177;49.156;8.142;2022-07-24T01:17:15;26.30;99.10
18101;DHT22;9177;49.156;8.142;2022-07-24T01:19:44;26.40;99.10
18101;DHT22;9177;49.156;8.142;2022-07-24T01:22:12;26.40;99.20
18101;DHT22;9177;49.156;8.142;2022-07-24T01:24:40;26.30;99.50
18101;DHT22;9177;49.156;8.142;2022-07-24T01:27:07;26.40;99.10
18101;DHT22;9177;49.156;8.142;2022-07-24T01:29:34;26.30;99.10
18101;DHT22;9177;49.156;8.142;2022-07-24T01:32:01;26.30;99.10
18101;DHT22;9177;49.156;8.142;2022-07-24T01:34:28;26.40;99.10
18101;DHT22;9177;49.156;8.142;2022-07-24T01:36:55;26.30;99.10
18101;DHT22;9177;49.156;8.142;2022-07-24T01:39:23;26.30;99.10
18101;DHT22;9177;49.156;8.142;2022-07-24T01:41:50;26.30;99.10
18101;DHT22;9177;49.156;8.142;2022-07-24T01:44:17;26.30;99.40
18101;DHT22;9177;49.156;8.142;2022-07-24T01:46:44;26.30;99.10
18101;DHT22;9177;49.156;8.142;2022-07-24T01:49:11;26.30;99.10
18101;DHT22;9177;49.156;8.142;2022-07-24T01:51:38;26.30;99.10
18101;DHT22;9177;49.156;8.142;2022-07-24T01:54:05;26.30;99.10
18101;DHT22;9177;49.156;8.142;2022-07-24T01:56:34;26.30;99.10
18101;DHT22;9177;49.156;8.142;2022-07-24T01:59:01;26.30;99.10
18101;DHT22;9177;49.156;8.142;2022-07-24T02:01:28;26.30;99.10
18101;DHT22;9177;49.156;8.142;2022-07-24T02:03:55;26.30;99.00
18101;DHT22;9177;49.156;8.142;2022-07-24T02:06:23;26.30;99.00
18101;DHT22;9177;49.156;8.142;2022-07-24T02:08:49;26.30;99.10
18101;DHT22;9177;49.156;8.142;2022-07-24T02:11:16;26.30;99.00
18101;DHT22;9177;49.156;8.142;2022-07-24T02:13:46;26.30;99.00
18101;DHT22;9177;49.156;8.142;2022-07-24T02:16:13;26.30;99.00
18101;DHT22;9177;49.156;8.142;2022-07-24T02:18:40;26.30;99.00
18101;DHT22;9177;49.156;8.142;2022-07-24T02:21:07;26.30;99.00
18101;DHT22;9177;49.156;8.142;2022-07-24T02:23:34;26.30;99.00
18101;DHT22;9177;49.156;8.142;2022-07-24T02:26:02;26.30;99.00
18101;DHT22;9177;49.156;8.142;2022-07-24T02:28:28;26.30;99.00
18101;DHT22;9177;49.156;8.142;2022-07-24T02:30:56;26.30;99.00
18101;DHT22;9177;49.156;8.142;2022-07-24T02:33:23;26.30;99.00
18101;DHT22;9177;49.156;8.142;2022-07-24T02:35:51;26.30;99.00
18101;DHT22;9177;49.156;8.142;2022-07-24T02:38:18;26.30;99.00
18101;DHT22;9177;49.156;8.142;2022-07-24T02:40:44;26.30;99.00
18101;DHT22;9177;49.156;8.142;2022-07-24T02:43:11;26.30;99.00
18101;DHT22;9177;49.156;8.142;2022-07-24T02:45:38;26.30;99.00
18101;DHT22;9177;49.156;8.142;2022-07-24T02:48:06;26.30;99.00
18101;DHT22;9177;49.156;8.142;2022-07-24T02:50:34;26.30;99.00
18101;DHT22;9177;49.156;8.142;2022-07-24T02:53:04;26.30;99.00
18101;DHT22;9177;49.156;8.142;2022-07-24T02:55:31;26.30;99.00
18101;DHT22;9177;49.156;8.142;2022-07-24T02:57:58;26.30;99.00
18101;DHT22;9177;49.156;8.142;2022-07-24T03:00:25;26.30;99.00
18101;DHT22;9177;49.156;8.142;2022-07-24T03:02:51;26.30;99.00
18101;DHT22;9177;49.156;8.142;2022-07-24T03:05:25;26.30;99.10
18101;DHT22;9177;49.156;8.142;2022-07-24T03:07:52;26.30;99.00
18101;DHT22;9177;49.156;8.142;2022-07-24T03:10:19;26.30;99.00
18101;DHT22;9177;49.156;8.142;2022-07-24T03:12:46;26.30;99.10
18101;DHT22;9177;49.156;8.142;2022-07-24T03:15:15;26.20;99.00
18101;DHT22;9177;49.156;8.142;2022-07-24T03:17:48;26.30;99.10
18101;DHT22;9177;49.156;8.142;2022-07-24T03:20:16;26.30;99.10
18101;DHT22;9177;49.156;8.142;2022-07-24T03:22:44;26.30;99.10
18101;DHT22;9177;49.156;8.142;2022-07-24T03:25:12;26.20;99.00
18101;DHT22;9177;49.156;8.142;2022-07-24T03:27:39;26.20;99.00
18101;DHT22;9177;49.156;8.142;2022-07-24T03:30:07;26.20;99.00
18101;DHT22;9177;49.156;8.142;2022-07-24T03:32:35;26.30;99.10
18101;DHT22;9177;49.156;8.142;2022-07-24T03:35:04;26.30;99.10
18101;DHT22;9177;49.156;8.142;2022-07-24T03:37:31;26.30;99.10
18101;DHT22;9177;49.156;8.142;2022-07-24T03:39:59;26.20;99.00
18101;DHT22;9177;49.156;8.142;2022-07-24T03:42:28;26.30;99.10
18101;DHT22;9177;49.156;8.142;2022-07-24T03:44:55;26.30;99.10
18101;DHT22;9177;49.156;8.142;2022-07-24T03:47:22;26.20;99.10
18101;DHT22;9177;49.156;8.142;2022-07-24T03:49:49;26.20;99.00
18101;DHT22;9177;49.156;8.142;2022-07-24T03:52:16;26.20;99.00
18101;DHT22;9177;49.156;8.142;2022-07-24T03:54:43;26.20;99.00
18101;DHT22;9177;49.156;8.142;2022-07-24T03:57:11;26.20;99.00
18101;DHT22;9177;49.156;8.142;2022-07-24T03:59:39;26.20;99.10
18101;DHT22;9177;49.156;8.142;2022-07-24T04:02:05;26.20;99.10
18101;DHT22;9177;49.156;8.142;2022-07-24T04:04:32;26.20;99.00
18101;DHT22;9177;49.156;8.142;2022-07-24T04:07:00;26.20;99.00
18101;DHT22;9177;49.156;8.142;2022-07-24T04:09:27;26.20;99.00
18101;DHT22;9177;49.156;8.142;2022-07-24T04:11:53;26.20;99.00
18101;DHT22;9177;49.156;8.142;2022-07-24T04:14:25;26.20;99.00
18101;DHT22;9177;49.156;8.142;2022-07-24T04:16:52;26.20;99.00
18101;DHT22;9177;49.156;8.142;2022-07-24T04:19:19;26.20;99.00
18101;DHT22;9177;49.156;8.142;2022-07-24T04:21:45;26.20;99.00
18101;DHT22;9177;49.156;8.142;2022-07-24T04:24:12;26.20;99.00
18101;DHT22;9177;49.156;8.142;2022-07-24T04:26:39;26.20;99.00
18101;DHT22;9177;49.156;8.142;2022-07-24T04:29:06;26.20;99.00
18101;DHT22;9177;49.156;8.142;2022-07-24T04:31:34;26.20;99.00
18101;DHT22;9177;49.156;8.142;2022-07-24T04:34:02;26.20;99.00
18101;DHT22;9177;49.156;8.142;2022-07-24T04:36:29;26.20;99.00
18101;DHT22;9177;49.156;8.142;2022-07-24T04:38:55;26.20;99.00
18101;DHT22;9177;49.156;8.142;2022-07-24T04:41:23;26.20;99.00
18101;DHT22;9177;49.156;8.142;2022-07-24T04:43:50;26.20;99.00
18101;DHT22;9177;49.156;8.142;2022-07-24T04:46:17;26.20;99.40
18101;DHT22;9177;49.156;8.142;2022-07-24T04:48:45;26.20;99.00
18101;DHT22;9177;49.156;8.142;2022-07-24T04:51:12;26.20;99.00
18101;DHT22;9177;49.156;8.142;2022-07-24T04:53:40;26.20;99.00
18101;DHT22;9177;49.156;8.142;2022-07-24T04:56:07;26.20;99.00
18101;DHT22;9177;49.156;8.142;2022-07-24T04:58:34;26.20;99.30
18101;DHT22;9177;49.156;8.142;2022-07-24T05:01:01;26.20;99.00
18101;DHT22;9177;49.156;8.142;2022-07-24T05:03:32;26.20;99.00
18101;DHT22;9177;49.156;8.142;2022-07-24T05:06:00;26.20;99.00
18101;DHT22;9177;49.156;8.142;2022-07-24T05:08:27;26.20;99.00
18101;DHT22;9177;49.156;8.142;2022-07-24T05:10:54;26.20;99.00
18101;DHT22;9177;49.156;8.142;2022-07-24T05:13:21;26.20;99.00
18101;DHT22;9177;49.156;8.142;2022-07-24T05:15:48;26.20;98.90
18101;DHT22;9177;49.156;8.142;2022-07-24T05:18:15;26.20;98.90
18101;DHT22;9177;49.156;8.142;2022-07-24T05:20:42;26.20;98.90
18101;DHT22;9177;49.156;8.142;2022-07-24T05:23:10;26.20;98.90
18101;DHT22;9177;49.156;8.142;2022-07-24T05:25:37;26.20;98.90
18101;DHT22;9177;49.156;8.142;2022-07-24T05:28:04;26.20;98.90
18101;DHT22;9177;49.156;8.142;2022-07-24T05:30:31;26.20;98.90
18101;DHT22;9177;49.156;8.142;2022-07-24T05:32:58;26.20;98.90
18101;DHT22;9177;49.156;8.142;2022-07-24T05:35:25;26.20;98.90
18101;DHT22;9177;49.156;8.142;2022-07-24T05:37:52;26.20;98.90
18101;DHT22;9177;49.156;8.142;2022-07-24T05:40:20;26.20;98.90
18101;DHT22;9177;49.156;8.142;2022-07-24T05:42:47;26.20;98.90
18101;DHT22;9177;49.156;8.142;2022-07-24T05:45:14;26.20;98.90
18101;DHT22;9177;49.156;8.142;2022-07-24T05:47:41;26.20;98.90
18101;DHT22;9177;49.156;8.142;2022-07-24T05:50:09;26.20;98.90
18101;DHT22;9177;49.156;8.142;2022-07-24T05:52:36;26.20;98.90
18101;DHT22;9177;49.156;8.142;2022-07-24T05:55:04;26.20;98.90
18101;DHT22;9177;49.156;8.142;2022-07-24T05:57:33;26.20;98.90
18101;DHT22;9177;49.156;8.142;2022-07-24T06:00:00;26.20;98.90
18101;DHT22;9177;49.156;8.142;2022-07-24T06:02:27;26.20;98.90
18101;DHT22;9177;49.156;8.142;2022-07-24T06:04:54;26.20;98.90
18101;DHT22;9177;49.156;8.142;2022-07-24T06:07:20;26.20;98.90
18101;DHT22;9177;49.156;8.142;2022-07-24T06:09:47;26.20;98.90
18101;DHT22;9177;49.156;8.142;2022-07-24T06:12:14;26.20;99.20
18101;DHT22;9177;49.156;8.142;2022-07-24T06:14:42;26.20;98.80
18101;DHT22;9177;49.156;8.142;2022-07-24T06:17:10;26.20;98.90
18101;DHT22;9177;49.156;8.142;2022-07-24T06:19:37;26.20;98.80
18101;DHT22;9177;49.156;8.142;2022-07-24T06:22:04;26.20;98.80
18101;DHT22;9177;49.156;8.142;2022-07-24T06:24:31;26.20;98.80
18101;DHT22;9177;49.156;8.142;2022-07-24T06:26:58;26.20;98.80
18101;DHT22;9177;49.156;8.142;2022-07-24T06:29:25;26.20;98.80
18101;DHT22;9177;49.156;8.142;2022-07-24T06:31:55;26.20;98.80
18101;DHT22;9177;49.156;8.142;2022-07-24T06:34:22;26.20;98.80
18101;DHT22;9177;49.156;8.142;2022-07-24T06:36:49;26.20;98.80
18101;DHT22;9177;49.156;8.142;2022-07-24T06:39:16;26.20;98.70
18101;DHT22;9177;49.156;8.142;2022-07-24T06:41:43;26.20;98.70
18101;DHT22;9177;49.156;8.142;2022-07-24T06:44:10;26.20;98.70
18101;DHT22;9177;49.156;8.142;2022-07-24T06:46:37;26.20;98.70
18101;DHT22;9177;49.156;8.142;2022-07-24T06:49:06;26.30;98.70
18101;DHT22;9177;49.156;8.142;2022-07-24T06:51:33;26.20;98.70
18101;DHT22;9177;49.156;8.142;2022-07-24T06:54:00;26.20;98.70
18101;DHT22;9177;49.156;8.142;2022-07-24T06:56:27;26.30;98.70
18101;DHT22;9177;49.156;8.142;2022-07-24T06:58:54;26.20;98.70
18101;DHT22;9177;49.156;8.142;2022-07-24T07:01:21;26.30;98.70
18101;DHT22;9177;49.156;8.142;2022-07-24T07:03:51;26.30;98.70
18101;DHT22;9177;49.156;8.142;2022-07-24T07:06:21;26.20;98.60
18101;DHT22;9177;49.156;8.142;2022-07-24T07:08:48;26.20;98.60
18101;DHT22;9177;49.156;8.142;2022-07-24T07:11:15;26.30;98.60
18101;DHT22;9177;49.156;8.142;2022-07-24T07:13:42;26.20;98.60
18101;DHT22;9177;49.156;8.142;2022-07-24T07:16:08;26.30;98.60
18101;DHT22;9177;49.156;8.142;2022-07-24T07:18:36;26.30;98.60
18101;DHT22;9177;49.156;8.142;2022-07-24T07:21:03;26.30;98.60
18101;DHT22;9177;49.156;8.142;2022-07-24T07:23:31;26.30;98.60
18101;DHT22;9177;49.156;8.142;2022-07-24T07:25:58;26.30;98.50
18101;DHT22;9177;49.156;8.142;2022-07-24T07:28:25;26.30;98.50
18101;DHT22;9177;49.156;8.142;2022-07-24T07:30:52;26.30;98.50
18101;DHT22;9177;49.156;8.142;2022-07-24T07:33:19;26.30;98.40
18101;DHT22;9177;49.156;8.142;2022-07-24T07:35:50;26.30;98.30
18101;DHT22;9177;49.156;8.142;2022-07-24T07:38:17;26.30;98.40
18101;DHT22;9177;49.156;8.142;2022-07-24T07:40:46;26.40;98.30
18101;DHT22;9177;49.156;8.142;2022-07-24T07:43:12;26.40;98.20
18101;DHT22;9177;49.156;8.142;2022-07-24T07:45:39;26.40;98.20
18101;DHT22;9177;49.156;8.142;2022-07-24T07:48:06;26.40;98.10
18101;DHT22;9177;49.156;8.142;2022-07-24T07:50:33;26.50;98.10
18101;DHT22;9177;49.156;8.142;2022-07-24T07:53:00;26.50;98.10
18101;DHT22;9177;49.156;8.142;2022-07-24T07:55:27;26.60;98.10
18101;DHT22;9177;49.156;8.142;2022-07-24T07:57:55;26.60;98.00
18101;DHT22;9177;49.156;8.142;2022-07-24T08:00:22;26.60;98.30
18101;DHT22;9177;49.156;8.142;2022-07-24T08:02:52;26.60;97.90
18101;DHT22;9177;49.156;8.142;2022-07-24T08:05:19;26.60;97.90
18101;DHT22;9177;49.156;8.142;2022-07-24T08:07:46;26.70;97.90
18101;DHT22;9177;49.156;8.142;2022-07-24T08:10:13;26.70;97.90
18101;DHT22;9177;49.156;8.142;2022-07-24T08:12:40;26.70;97.90
18101;DHT22;9177;49.156;8.142;2022-07-24T08:15:09;26.70;97.80
18101;DHT22;9177;49.156;8.142;2022-07-24T08:17:37;26.70;97.80
18101;DHT22;9177;49.156;8.142;2022-07-24T08:20:04;26.80;97.80
18101;DHT22;9177;49.156;8.142;2022-07-24T08:22:31;26.80;97.80
18101;DHT22;9177;49.156;8.142;2022-07-24T08:24:58;26.80;97.80
18101;DHT22;9177;49.156;8.142;2022-07-24T08:27:25;26.80;97.70
18101;DHT22;9177;49.156;8.142;2022-07-24T08:29:52;26.80;98.10
18101;DHT22;9177;49.156;8.142;2022-07-24T08:32:21;26.80;97.70
18101;DHT22;9177;49.156;8.142;2022-07-24T08:34:49;26.80;97.70
18101;DHT22;9177;49.156;8.142;2022-07-24T08:37:18;26.80;97.70
18101;DHT22;9177;49.156;8.142;2022-07-24T08:39:46;26.90;97.60
18101;DHT22;9177;49.156;8.142;2022-07-24T08:42:13;26.90;97.60
18101;DHT22;9177;49.156;8.142;2022-07-24T08:44:40;26.90;97.60
18101;DHT22;9177;49.156;8.142;2022-07-24T08:47:07;26.90;97.50
18101;DHT22;9177;49.156;8.142;2022-07-24T08:49:37;26.90;97.50
18101;DHT22;9177;49.156;8.142;2022-07-24T08:52:05;26.90;97.50
18101;DHT22;9177;49.156;8.142;2022-07-24T08:54:33;26.90;97.50
18101;DHT22;9177;49.156;8.142;2022-07-24T08:57:00;26.90;97.50
18101;DHT22;9177;49.156;8.142;2022-07-24T08:59:27;26.90;97.50
18101;DHT22;9177;49.156;8.142;2022-07-24T09:01:54;26.90;97.40
18101;DHT22;9177;49.156;8.142;2022-07-24T09:04:32;27.00;97.50
18101;DHT22;9177;49.156;8.142;2022-07-24T09:07:02;27.00;97.50
18101;DHT22;9177;49.156;8.142;2022-07-24T09:09:30;27.00;97.50
18101;DHT22;9177;49.156;8.142;2022-07-24T09:12:04;27.00;97.40
18101;DHT22;9177;49.156;8.142;2022-07-24T09:14:32;27.00;97.40
18101;DHT22;9177;49.156;8.142;2022-07-24T09:17:03;27.00;97.40
18101;DHT22;9177;49.156;8.142;2022-07-24T09:19:30;27.00;97.40
18101;DHT22;9177;49.156;8.142;2022-07-24T09:21:57;27.00;97.40
18101;DHT22;9177;49.156;8.142;2022-07-24T09:24:26;27.00;97.40
18101;DHT22;9177;49.156;8.142;2022-07-24T09:26:54;27.00;97.40
18101;DHT22;9177;49.156;8.142;2022-07-24T09:29:23;27.10;97.40
18101;DHT22;9177;49.156;8.142;2022-07-24T09:31:55;27.10;97.50
18101;DHT22;9177;49.156;8.142;2022-07-24T09:34:22;27.10;97.50
18101;DHT22;9177;49.156;8.142;2022-07-24T09:36:59;27.10;97.80
18101;DHT22;9177;49.156;8.142;2022-07-24T09:39:34;27.10;97.40
18101;DHT22;9177;49.156;8.142;2022-07-24T09:42:04;27.10;97.40
18101;DHT22;9177;49.156;8.142;2022-07-24T09:44:31;27.10;97.40
18101;DHT22;9177;49.156;8.142;2022-07-24T09:47:01;27.10;97.40
18101;DHT22;9177;49.156;8.142;2022-07-24T09:49:30;27.10;97.40
18101;DHT22;9177;49.156;8.142;2022-07-24T09:52:11;27.10;97.40
18101;DHT22;9177;49.156;8.142;2022-07-24T09:54:41;27.10;97.40
18101;DHT22;9177;49.156;8.142;2022-07-24T09:57:16;27.10;97.40
18101;DHT22;9177;49.156;8.142;2022-07-24T09:59:45;27.10;97.40
18101;DHT22;9177;49.156;8.142;2022-07-24T10:02:16;27.10;97.40
18101;DHT22;9177;49.156;8.142;2022-07-24T10:04:44;27.10;97.40
18101;DHT22;9177;49.156;8.142;2022-07-24T10:07:16;27.10;97.40
18101;DHT22;9177;49.156;8.142;2022-07-24T10:09:46;27.10;97.40
18101;DHT22;9177;49.156;8.142;2022-07-24T10:12:15;27.10;97.40
18101;DHT22;9177;49.156;8.142;2022-07-24T10:14:49;27.20;97.40
18101;DHT22;9177;49.156;8.142;2022-07-24T10:17:16;27.20;97.40
18101;DHT22;9177;49.156;8.142;2022-07-24T10:19:45;27.10;97.40
18101;DHT22;9177;49.156;8.142;2022-07-24T10:22:14;27.20;97.40
18101;DHT22;9177;49.156;8.142;2022-07-24T10:25:01;27.20;97.40
18101;DHT22;9177;49.156;8.142;2022-07-24T10:27:33;27.20;97.40
18101;DHT22;9177;49.156;8.142;2022-07-24T10:30:03;27.20;97.40
18101;DHT22;9177;49.156;8.142;2022-07-24T10:32:31;27.20;97.40
18101;DHT22;9177;49.156;8.142;2022-07-24T10:35:06;27.20;97.40
18101;DHT22;9177;49.156;8.142;2022-07-24T10:37:42;27.20;97.40
18101;DHT22;9177;49.156;8.142;2022-07-24T10:40:20;27.20;97.40
18101;DHT22;9177;49.156;8.142;2022-07-24T10:43:10;27.20;97.40
18101;DHT22;9177;49.156;8.142;2022-07-24T10:45:39;27.20;97.40
18101;DHT22;9177;49.156;8.142;2022-07-24T10:48:31;27.20;97.40
18101;DHT22;9177;49.156;8.142;2022-07-24T10:51:03;27.20;97.40
18101;DHT22;9177;49.156;8.142;2022-07-24T10:53:44;27.20;97.40
18101;DHT22;9177;49.156;8.142;2022-07-24T10:56:18;27.20;97.40
18101;DHT22;9177;49.156;8.142;2022-07-24T10:58:53;27.20;97.40
18101;DHT22;9177;49.156;8.142;2022-07-24T11:01:35;27.20;97.40
18101;DHT22;9177;49.156;8.142;2022-07-24T11:04:05;27.20;97.40
18101;DHT22;9177;49.156;8.142;2022-07-24T11:06:51;27.30;97.40
18101;DHT22;9177;49.156;8.142;2022-07-24T11:09:20;27.30;97.40
18101;DHT22;9177;49.156;8.142;2022-07-24T11:12:04;27.30;97.40
18101;DHT22;9177;49.156;8.142;2022-07-24T11:14:49;27.30;97.40
18101;DHT22;9177;49.156;8.142;2022-07-24T11:17:36;27.30;97.40
18101;DHT22;9177;49.156;8.142;2022-07-24T11:20:05;27.30;97.40
18101;DHT22;9177;49.156;8.142;2022-07-24T11:22:40;27.30;97.40
18101;DHT22;9177;49.156;8.142;2022-07-24T11:25:10;27.30;97.40
18101;DHT22;9177;49.156;8.142;2022-07-24T11:27:55;27.30;97.40
18101;DHT22;9177;49.156;8.142;2022-07-24T11:30:27;27.30;97.40
18101;DHT22;9177;49.156;8.142;2022-07-24T11:32:55;27.30;97.40
18101;DHT22;9177;49.156;8.142;2022-07-24T11:35:31;27.30;97.40
18101;DHT22;9177;49.156;8.142;2022-07-24T11:37:59;27.30;97.40
18101;DHT22;9177;49.156;8.142;2022-07-24T11:40:27;27.30;97.40
18101;DHT22;9177;49.156;8.142;2022-07-24T11:42:56;27.30;97.40
18101;DHT22;9177;49.156;8.142;2022-07-24T11:45:24;27.30;97.40
18101;DHT22;9177;49.156;8.142;2022-07-24T11:47:51;27.30;97.40
18101;DHT22;9177;49.156;8.142;2022-07-24T11:50:21;27.30;97.40
18101;DHT22;9177;49.156;8.142;2022-07-24T11:52:49;27.30;97.40
18101;DHT22;9177;49.156;8.142;2022-07-24T11:55:18;27.30;97.50
18101;DHT22;9177;49.156;8.142;2022-07-24T11:57:47;27.30;97.80
18101;DHT22;9177;49.156;8.142;2022-07-24T12:00:17;27.30;97.50
18101;DHT22;9177;49.156;8.142;2022-07-24T12:02:46;27.30;97.50
18101;DHT22;9177;49.156;8.142;2022-07-24T12:05:13;27.30;97.50
18101;DHT22;9177;49.156;8.142;2022-07-24T12:07:49;27.30;97.50
18101;DHT22;9177;49.156;8.142;2022-07-24T12:10:18;27.40;97.60
18101;DHT22;9177;49.156;8.142;2022-07-24T12:12:49;27.40;97.60
18101;DHT22;9177;49.156;8.142;2022-07-24T12:15:18;27.40;97.70
18101;DHT22;9177;49.156;8.142;2022-07-24T12:17:56;27.40;97.70
18101;DHT22;9177;49.156;8.142;2022-07-24T12:20:25;27.50;97.80
18101;DHT22;9177;49.156;8.142;2022-07-24T12:22:52;27.50;97.80
18101;DHT22;9177;49.156;8.142;2022-07-24T12:25:20;27.60;97.90
18101;DHT22;9177;49.156;8.142;2022-07-24T12:27:47;27.60;97.80
18101;DHT22;9177;49.156;8.142;2022-07-24T12:30:21;27.60;97.90
18101;DHT22;9177;49.156;8.142;2022-07-24T12:32:59;27.70;97.80
18101;DHT22;9177;49.156;8.142;2022-07-24T12:35:28;27.70;97.80
18101;DHT22;9177;49.156;8.142;2022-07-24T12:37:56;27.70;97.70
18101;DHT22;9177;49.156;8.142;2022-07-24T12:40:31;27.70;97.70
18101;DHT22;9177;49.156;8.142;2022-07-24T12:43:04;27.80;97.70
18101;DHT22;9177;49.156;8.142;2022-07-24T12:45:34;27.80;97.70
18101;DHT22;9177;49.156;8.142;2022-07-24T12:48:22;27.80;97.70
18101;DHT22;9177;49.156;8.142;2022-07-24T12:51:03;27.80;98.10
18101;DHT22;9177;49.156;8.142;2022-07-24T12:53:32;27.90;97.90
18101;DHT22;9177;49.156;8.142;2022-07-24T12:56:10;27.80;97.70
18101;DHT22;9177;49.156;8.142;2022-07-24T12:58:58;27.80;97.70
18101;DHT22;9177;49.156;8.142;2022-07-24T13:01:33;27.90;97.60
18101;DHT22;9177;49.156;8.142;2022-07-24T13:04:09;27.90;97.50
18101;DHT22;9177;49.156;8.142;2022-07-24T13:06:39;27.90;97.50
18101;DHT22;9177;49.156;8.142;2022-07-24T13:09:11;28.00;97.40
18101;DHT22;9177;49.156;8.142;2022-07-24T13:11:39;28.00;97.40
18101;DHT22;9177;49.156;8.142;2022-07-24T13:14:07;28.00;97.40
18101;DHT22;9177;49.156;8.142;2022-07-24T13:16:37;28.00;97.30
18101;DHT22;9177;49.156;8.142;2022-07-24T13:19:05;28.00;97.30
18101;DHT22;9177;49.156;8.142;2022-07-24T13:21:33;28.00;97.30
18101;DHT22;9177;49.156;8.142;2022-07-24T13:24:00;28.10;97.30
18101;DHT22;9177;49.156;8.142;2022-07-24T13:26:27;28.10;97.20
18101;DHT22;9177;49.156;8.142;2022-07-24T13:28:54;28.10;97.30
18101;DHT22;9177;49.156;8.142;2022-07-24T13:31:21;28.10;97.20
18101;DHT22;9177;49.156;8.142;2022-07-24T13:33:50;28.10;97.10
18101;DHT22;9177;49.156;8.142;2022-07-24T13:36:18;28.20;97.10
18101;DHT22;9177;49.156;8.142;2022-07-24T13:38:45;28.20;97.00
18101;DHT22;9177;49.156;8.142;2022-07-24T13:41:12;28.20;97.00
18101;DHT22;9177;49.156;8.142;2022-07-24T13:43:40;28.20;97.00
18101;DHT22;9177;49.156;8.142;2022-07-24T13:46:07;28.30;96.90
18101;DHT22;9177;49.156;8.142;2022-07-24T13:48:34;28.30;96.90
18101;DHT22;9177;49.156;8.142;2022-07-24T13:51:02;28.30;96.90
18101;DHT22;9177;49.156;8.142;2022-07-24T13:53:29;28.30;96.80
18101;DHT22;9177;49.156;8.142;2022-07-24T13:55:56;28.20;96.70
18101;DHT22;9177;49.156;8.142;2022-07-24T13:58:23;28.20;96.60
18101;DHT22;9177;49.156;8.142;2022-07-24T14:00:50;28.20;96.60
18101;DHT22;9177;49.156;8.142;2022-07-24T14:03:17;28.20;96.60
18101;DHT22;9177;49.156;8.142;2022-07-24T14:05:44;28.20;96.60
18101;DHT22;9177;49.156;8.142;2022-07-24T14:08:12;28.20;96.50
18101;DHT22;9177;49.156;8.142;2022-07-24T14:10:39;28.20;96.50
18101;DHT22;9177;49.156;8.142;2022-07-24T14:13:06;28.20;96.50
18101;DHT22;9177;49.156;8.142;2022-07-24T14:15:33;28.20;96.50
18101;DHT22;9177;49.156;8.142;2022-07-24T14:18:00;28.20;96.40
18101;DHT22;9177;49.156;8.142;2022-07-24T14:20:27;28.20;96.40
18101;DHT22;9177;49.156;8.142;2022-07-24T14:22:58;28.20;96.40
18101;DHT22;9177;49.156;8.142;2022-07-24T14:25:26;28.20;96.40
18101;DHT22;9177;49.156;8.142;2022-07-24T14:27:53;28.20;96.40
18101;DHT22;9177;49.156;8.142;2022-07-24T14:30:20;28.20;96.40
18101;DHT22;9177;49.156;8.142;2022-07-24T14:32:47;28.10;96.40
18101;DHT22;9177;49.156;8.142;2022-07-24T14:35:14;28.10;96.30
18101;DHT22;9177;49.156;8.142;2022-07-24T14:37:40;28.10;96.30
18101;DHT22;9177;49.156;8.142;2022-07-24T14:40:08;28.10;96.40
18101;DHT22;9177;49.156;8.142;2022-07-24T14:42:37;28.00;96.40
18101;DHT22;9177;49.156;8.142;2022-07-24T14:45:05;28.00;96.40
18101;DHT22;9177;49.156;8.142;2022-07-24T14:47:33;28.00;96.40
18101;DHT22;9177;49.156;8.142;2022-07-24T14:50:06;28.00;96.60
18101;DHT22;9177;49.156;8.142;2022-07-24T14:52:35;27.90;96.50
18101;DHT22;9177;49.156;8.142;2022-07-24T14:55:03;27.90;96.50
18101;DHT22;9177;49.156;8.142;2022-07-24T14:57:31;27.90;96.50
18101;DHT22;9177;49.156;8.142;2022-07-24T14:59:59;27.90;96.30
18101;DHT22;9177;49.156;8.142;2022-07-24T15:02:26;27.90;96.30
18101;DHT22;9177;49.156;8.142;2022-07-24T15:04:53;27.90;96.40
18101;DHT22;9177;49.156;8.142;2022-07-24T15:07:20;27.90;96.40
18101;DHT22;9177;49.156;8.142;2022-07-24T15:09:47;27.90;96.30
18101;DHT22;9177;49.156;8.142;2022-07-24T15:12:14;27.90;96.30
18101;DHT22;9177;49.156;8.142;2022-07-24T15:14:41;27.90;96.30
18101;DHT22;9177;49.156;8.142;2022-07-24T15:17:09;27.90;96.30
18101;DHT22;9177;49.156;8.142;2022-07-24T15:19:37;27.90;96.20
18101;DHT22;9177;49.156;8.142;2022-07-24T15:22:04;27.90;96.20
18101;DHT22;9177;49.156;8.142;2022-07-24T15:24:30;27.90;96.30
18101;DHT22;9177;49.156;8.142;2022-07-24T15:26:57;27.80;96.20
18101;DHT22;9177;49.156;8.142;2022-07-24T15:29:24;27.90;96.30
18101;DHT22;9177;49.156;8.142;2022-07-24T15:31:51;27.90;96.60
18101;DHT22;9177;49.156;8.142;2022-07-24T15:34:20;27.80;96.20
18101;DHT22;9177;49.156;8.142;2022-07-24T15:36:46;27.90;96.20
18101;DHT22;9177;49.156;8.142;2022-07-24T15:39:13;27.90;96.10
18101;DHT22;9177;49.156;8.142;2022-07-24T15:41:40;27.90;96.10
18101;DHT22;9177;49.156;8.142;2022-07-24T15:44:08;27.90;96.10
18101;DHT22;9177;49.156;8.142;2022-07-24T15:46:34;27.90;96.10
18101;DHT22;9177;49.156;8.142;2022-07-24T15:49:04;27.90;96.10
18101;DHT22;9177;49.156;8.142;2022-07-24T15:51:33;27.90;96.10
18101;DHT22;9177;49.156;8.142;2022-07-24T15:54:00;27.90;96.10